Time;durP1;ratioP1;P1;durP2;ratioP2;P2;SDS_P1;SDS_P2;PMS_P1;PMS_P2;Temp;Humidity;BMP_temperature;BMP_pressure;BME280_temperature;BME280_humidity;BME280_pressure;Samples;Min_cycle;Max_cycle;Signal;HPM_P1;HPM_P2
2021/12/03 00:01:26;;;;;;;18.02;6.90;;;;;;;8.68;83.21;100087.07;1758235;80;20964;-73
2021/12/03 00:03:53;;;;;;;20.48;8.05;;;;;;;8.66;83.11;100086.80;1757900;81;20872;-73
2021/12/03 00:06:21;;;;;;;14.30;6.60;;;;;;;8.63;82.98;100090.91;1758285;80;20983;-74
2021/12/03 00:08:48;;;;;;;13.83;5.50;;;;;;;8.57;82.99;100079.04;1758365;80;20916;-74
2021/12/03 00:11:15;;;;;;;18.73;6.08;;;;;;;8.52;83.08;100089.41;1758367;80;21132;-74
2021/12/03 00:13:42;;;;;;;13.83;5.65;;;;;;;8.46;83.32;100082.30;1758270;81;20955;-74
2021/12/03 00:16:09;;;;;;;15.00;5.80;;;;;;;8.41;83.44;100077.81;1758263;80;20904;-75
2021/12/03 00:18:37;;;;;;;19.17;6.53;;;;;;;8.39;83.55;100074.89;1758228;80;20912;-74
2021/12/03 00:21:08;;;;;;;10.63;5.35;;;;;;;8.38;83.67;100084.95;1758370;80;21370;-74
2021/12/03 00:23:35;;;;;;;16.37;6.25;;;;;;;8.37;83.76;100080.67;1758249;80;21215;-74
2021/12/03 00:26:02;;;;;;;16.65;6.12;;;;;;;8.36;83.88;100079.84;1758132;80;20834;-73
2021/12/03 00:28:30;;;;;;;13.75;6.28;;;;;;;8.35;83.94;100084.67;1758342;81;20900;-74
2021/12/03 00:30:57;;;;;;;17.92;6.75;;;;;;;8.37;83.97;100096.34;1758291;80;21315;-74
2021/12/03 00:33:25;;;;;;;17.27;7.10;;;;;;;8.37;84.01;100099.80;1758322;80;20872;-75
2021/12/03 00:35:52;;;;;;;14.55;7.50;;;;;;;8.39;84.15;100087.95;1758519;81;21468;-74
2021/12/03 00:38:20;;;;;;;20.62;6.92;;;;;;;8.41;84.22;100093.50;1758266;80;21433;-73
2021/12/03 00:40:47;;;;;;;9.93;6.22;;;;;;;8.44;84.24;100089.86;1749120;80;20897;-75
2021/12/03 00:43:14;;;;;;;16.62;6.25;;;;;;;8.45;84.27;100097.61;1745134;82;20952;-75
2021/12/03 00:45:43;;;;;;;14.85;5.70;;;;;;;8.49;84.23;100095.19;1745089;80;20999;-75
2021/12/03 00:48:10;;;;;;;12.58;6.65;;;;;;;8.53;84.16;100094.52;1745420;81;21791;-74
2021/12/03 00:50:37;;;;;;;19.45;5.85;;;;;;;8.57;84.05;100091.27;1745182;81;20928;-75
2021/12/03 00:53:04;;;;;;;20.40;8.45;;;;;;;8.60;83.98;100098.92;1744663;81;20936;-74
2021/12/03 00:55:31;;;;;;;15.68;7.65;;;;;;;8.62;83.88;100094.44;1744757;80;20948;-75
2021/12/03 00:57:58;;;;;;;16.55;6.72;;;;;;;8.61;83.80;100093.61;1744558;81;20892;-74
2021/12/03 01:00:29;;;;;;;17.85;6.95;;;;;;;8.60;83.73;100091.91;1744781;81;21762;-74
2021/12/03 01:02:58;;;;;;;17.00;6.95;;;;;;;8.59;83.69;100090.72;1744541;82;20885;-73
2021/12/03 01:05:25;;;;;;;17.42;6.87;;;;;;;8.58;83.76;100099.47;1744876;81;20929;-74
2021/12/03 01:07:52;;;;;;;20.08;7.83;;;;;;;8.58;83.86;100100.34;1744664;82;20948;-75
2021/12/03 01:10:19;;;;;;;20.68;7.22;;;;;;;8.59;83.85;100099.86;1744678;81;20849;-74
2021/12/03 01:12:46;;;;;;;15.23;7.03;;;;;;;8.59;83.84;100090.24;1744726;81;21735;-75
2021/12/03 01:15:16;;;;;;;17.70;6.65;;;;;;;8.59;83.80;100090.24;1744538;81;20987;-75
2021/12/03 01:17:43;;;;;;;16.60;6.40;;;;;;;8.59;83.78;100094.16;1744965;81;20925;-74
2021/12/03 01:20:13;;;;;;;19.57;7.28;;;;;;;8.57;83.72;100089.97;1744643;81;21457;-73
2021/12/03 01:22:42;;;;;;;19.82;6.37;;;;;;;8.60;83.59;100093.22;1744741;82;20908;-74
2021/12/03 01:25:10;;;;;;;13.10;6.60;;;;;;;8.60;83.56;100091.08;1744761;81;21126;-75
2021/12/03 01:27:37;;;;;;;22.48;6.55;;;;;;;8.59;83.60;100094.16;1744552;81;20850;-73
2021/12/03 01:30:07;;;;;;;17.82;6.62;;;;;;;8.63;83.62;100102.67;1744512;81;21031;-74
2021/12/03 01:32:36;;;;;;;19.17;6.72;;;;;;;8.63;83.63;100107.43;1744689;81;20953;-74
2021/12/03 01:35:04;;;;;;;18.27;7.92;;;;;;;8.63;83.62;100110.04;1744698;81;20933;-75
2021/12/03 01:37:31;;;;;;;15.30;7.17;;;;;;;8.65;83.60;100112.57;1744549;81;21955;-75
2021/12/03 01:39:58;;;;;;;11.03;5.22;;;;;;;8.67;83.45;100112.84;1747314;80;20916;-74
2021/12/03 01:42:24;;;;;;;18.52;7.03;;;;;;;8.67;83.37;100104.14;1757995;81;20944;-75
2021/12/03 01:44:51;;;;;;;16.82;5.70;;;;;;;8.66;83.45;100112.93;1758112;81;21050;-74
2021/12/03 01:47:18;;;;;;;20.85;6.72;;;;;;;8.65;83.46;100113.41;1758026;81;20964;-75
2021/12/03 01:49:45;;;;;;;16.87;7.35;;;;;;;8.66;83.48;100113.77;1757954;81;21463;-75
2021/12/03 01:52:12;;;;;;;15.98;6.95;;;;;;;8.66;83.51;100104.61;1757863;81;20959;-75
2021/12/03 01:54:38;;;;;;;15.28;6.78;;;;;;;8.67;83.44;100110.67;1757806;81;20885;-74
2021/12/03 01:57:05;;;;;;;14.68;6.83;;;;;;;8.70;83.32;100114.43;1757972;80;20968;-74
2021/12/03 01:59:32;;;;;;;15.68;6.72;;;;;;;8.71;83.29;100105.64;1757921;81;21094;-74
2021/12/03 02:01:59;;;;;;;13.53;6.00;;;;;;;8.69;83.30;100100.53;1757888;81;21514;-75
2021/12/03 02:04:26;;;;;;;13.65;6.30;;;;;;;8.73;83.19;100109.48;1757782;81;20920;-73
2021/12/03 02:06:53;;;;;;;18.25;7.17;;;;;;;8.70;83.06;100103.98;1757916;80;21441;-75
2021/12/03 02:09:20;;;;;;;9.20;7.17;;;;;;;8.67;83.02;100112.84;1757952;81;20940;-74
2021/12/03 02:11:47;;;;;;;14.80;5.67;;;;;;;8.67;82.94;100112.84;1757936;81;20853;-75
2021/12/03 02:14:14;;;;;;;13.20;6.22;;;;;;;8.69;82.69;100108.81;1757944;81;21152;-75
2021/12/03 02:16:45;;;;;;;13.10;6.80;;;;;;;8.69;82.60;100111.42;1757895;81;21011;-74
2021/12/03 02:19:12;;;;;;;13.98;7.33;;;;;;;8.68;82.56;100107.98;1757839;81;20877;-74
2021/12/03 02:21:39;;;;;;;14.75;6.83;;;;;;;8.66;82.61;100103.78;1757788;80;20956;-74
2021/12/03 02:24:05;;;;;;;17.05;8.35;;;;;;;8.66;82.65;100102.00;1757976;80;20892;-76
2021/12/03 02:26:33;;;;;;;20.32;8.10;;;;;;;8.63;82.61;100102.20;1758010;81;21555;-75
2021/12/03 02:29:00;;;;;;;26.40;8.25;;;;;;;8.61;82.47;100094.91;1757904;81;20925;-75
2021/12/03 02:31:27;;;;;;;12.98;6.65;;;;;;;8.61;82.38;100094.91;1757942;81;20856;-74
2021/12/03 02:33:54;;;;;;;27.27;8.93;;;;;;;8.61;82.25;100102.75;1757791;80;21492;-75
2021/12/03 02:36:22;;;;;;;11.10;6.62;;;;;;;8.58;82.32;100100.34;1758088;81;20975;-74
2021/12/03 02:38:49;;;;;;;18.15;7.85;;;;;;;8.54;82.40;100097.97;1757947;81;21132;-74
2021/12/03 02:41:17;;;;;;;15.68;7.58;;;;;;;8.51;82.47;100101.61;1749431;80;20921;-74
2021/12/03 02:43:44;;;;;;;15.48;8.25;;;;;;;8.47;82.56;100107.51;1744616;80;21433;-74
2021/12/03 02:46:11;;;;;;;16.85;8.50;;;;;;;8.47;82.69;100113.17;1744869;80;20885;-74
2021/12/03 02:48:39;;;;;;;12.33;6.90;;;;;;;8.46;82.68;100111.03;1744565;81;20893;-74
2021/12/03 02:51:06;;;;;;;14.70;7.35;;;;;;;8.46;82.63;100108.89;1744777;81;21075;-75
2021/12/03 02:53:34;;;;;;;14.53;8.60;;;;;;;8.44;82.62;100119.43;1744532;81;20991;-75
2021/12/03 02:56:00;;;;;;;10.28;7.00;;;;;;;8.42;82.76;100113.45;1744841;81;21453;-74
2021/12/03 02:58:28;;;;;;;14.70;6.92;;;;;;;8.42;82.88;100113.45;1744546;81;20897;-75
2021/12/03 03:00:55;;;;;;;17.02;7.97;;;;;;;8.43;82.98;100123.46;1744532;81;20936;-75
2021/12/03 03:03:22;;;;;;;14.25;8.00;;;;;;;8.41;83.09;100120.93;1744475;82;21120;-75
2021/12/03 03:06:00;;;;;;;14.50;7.45;;;;;;;8.40;83.22;100119.67;1744426;81;20909;-74
2021/12/03 03:08:28;;;;;;;18.85;7.90;;;;;;;8.40;83.22;100126.20;1744586;81;21416;-74
2021/12/03 03:10:57;;;;;;;20.45;6.90;;;;;;;8.40;83.23;100132.73;1744469;81;20968;-75
2021/12/03 03:13:25;;;;;;;17.32;7.53;;;;;;;8.40;83.29;100131.42;1744672;81;20889;-74
2021/12/03 03:15:52;;;;;;;13.48;6.97;;;;;;;8.39;83.47;100130.59;1744852;81;21480;-75
2021/12/03 03:18:22;;;;;;;20.43;8.55;;;;;;;8.38;83.57;100132.84;1744399;80;20874;-75
2021/12/03 03:20:49;;;;;;;15.48;7.28;;;;;;;8.41;83.70;100144.92;1744960;80;21308;-76
2021/12/03 03:23:16;;;;;;;16.35;7.60;;;;;;;8.40;83.83;100150.58;1744554;81;20968;-74
2021/12/03 03:25:43;;;;;;;16.97;8.95;;;;;;;8.38;83.89;100139.81;1744613;82;20933;-75
2021/12/03 03:28:11;;;;;;;16.70;8.88;;;;;;;8.36;83.93;100145.16;1744530;81;21539;-74
2021/12/03 03:30:39;;;;;;;18.02;7.37;;;;;;;8.40;83.87;100140.57;1744718;81;20885;-75
2021/12/03 03:33:06;;;;;;;17.73;7.95;;;;;;;8.40;83.91;100135.34;1744457;81;20928;-74
2021/12/03 03:35:33;;;;;;;19.45;7.45;;;;;;;8.38;83.97;100127.63;1744733;81;20877;-75
2021/12/03 03:38:00;;;;;;;19.82;8.70;;;;;;;8.38;84.08;100133.28;1744693;82;20845;-74
2021/12/03 03:40:28;;;;;;;16.32;8.53;;;;;;;8.37;84.14;100134.23;1744548;80;21085;-75
2021/12/03 03:42:57;;;;;;;14.68;9.03;;;;;;;8.35;84.18;100127.78;1744652;81;20875;-75
2021/12/03 03:45:26;;;;;;;17.57;8.85;;;;;;;8.34;84.24;100130.03;1744493;81;21488;-76
2021/12/03 03:47:53;;;;;;;18.15;9.75;;;;;;;8.33;84.26;100139.26;1744423;81;20991;-76
2021/12/03 03:50:20;;;;;;;16.12;7.35;;;;;;;8.35;84.24;100137.40;1744671;82;20933;-76
2021/12/03 03:52:48;;;;;;;15.40;7.50;;;;;;;8.33;84.24;100134.03;1745010;82;21485;-75
2021/12/03 03:55:15;;;;;;;14.80;8.18;;;;;;;8.31;84.38;100135.42;1744552;81;20948;-76
2021/12/03 03:57:41;;;;;;;10.20;6.22;;;;;;;8.29;84.45;100135.97;1744543;81;20893;-75
2021/12/03 04:00:12;;;;;;;17.85;8.13;;;;;;;8.29;84.58;100134.66;1744450;81;20940;-76
2021/12/03 04:02:39;;;;;;;18.00;8.33;;;;;;;8.29;84.64;100136.84;1744227;82;20853;-77
2021/12/03 04:05:07;;;;;;;20.50;8.85;;;;;;;8.29;84.70;100138.14;1744627;81;21431;-75
2021/12/03 04:07:34;;;;;;;14.03;8.48;;;;;;;8.29;84.70;100130.30;1744590;82;20996;-73
2021/12/03 04:10:01;;;;;;;15.23;8.53;;;;;;;8.26;84.72;100127.02;1744542;81;20841;-74
2021/12/03 04:12:28;;;;;;;15.38;8.58;;;;;;;8.23;84.75;100124.59;1744462;81;20939;-74
2021/12/03 04:14:55;;;;;;;11.00;6.78;;;;;;;8.29;84.77;100140.75;1744474;82;20933;-76
2021/12/03 04:17:22;;;;;;;13.32;7.40;;;;;;;8.29;84.81;100139.45;1744445;81;21126;-76
2021/12/03 04:19:49;;;;;;;14.78;7.40;;;;;;;8.32;84.84;100145.42;1744371;81;20885;-76
2021/12/03 04:22:18;;;;;;;19.45;9.03;;;;;;;8.35;84.83;100154.38;1744604;81;20972;-75
2021/12/03 04:24:45;;;;;;;12.55;7.97;;;;;;;8.38;84.76;100156.36;1744518;81;20925;-75
2021/12/03 04:27:12;;;;;;;17.80;7.55;;;;;;;8.43;84.79;100156.13;1744860;81;20921;-74
2021/12/03 04:29:39;;;;;;;17.12;8.18;;;;;;;8.45;84.93;100158.18;1744617;81;21671;-75
2021/12/03 04:32:08;;;;;;;15.05;9.33;;;;;;;8.45;85.06;100152.95;1744669;81;20904;-76
2021/12/03 04:34:36;;;;;;;18.17;8.23;;;;;;;8.46;85.25;100156.77;1744457;82;20897;-74
2021/12/03 04:37:03;;;;;;;19.35;8.00;;;;;;;8.48;85.20;100163.22;1744598;82;21003;-75
2021/12/03 04:39:29;;;;;;;16.37;8.43;;;;;;;8.48;85.29;100150.98;1744689;81;20909;-75
2021/12/03 04:41:56;;;;;;;19.05;8.40;;;;;;;8.48;85.37;100154.07;1752890;80;21073;-75
2021/12/03 04:44:23;;;;;;;17.65;7.75;;;;;;;8.48;85.41;100152.29;1757941;81;20932;-75
2021/12/03 04:46:51;;;;;;;15.10;6.85;;;;;;;8.51;85.49;100153.88;1757929;80;20942;-78
2021/12/03 04:49:18;;;;;;;16.48;6.90;;;;;;;8.54;85.51;100151.55;1758050;80;20872;-76
2021/12/03 04:51:44;;;;;;;14.25;7.78;;;;;;;8.57;85.48;100152.22;1758241;81;20924;-75
2021/12/03 04:54:11;;;;;;;25.10;8.98;;;;;;;8.60;85.51;100155.11;1757917;81;21195;-77
2021/12/03 04:56:38;;;;;;;16.57;8.65;;;;;;;8.62;85.42;100153.25;1757950;81;20960;-76
2021/12/03 04:59:05;;;;;;;13.55;7.58;;;;;;;8.62;85.32;100146.72;1757928;81;20940;-75
2021/12/03 05:01:33;;;;;;;20.68;8.40;;;;;;;8.64;85.18;100150.91;1757951;81;21404;-77
2021/12/03 05:04:00;;;;;;;15.63;7.62;;;;;;;8.65;85.20;100150.00;1757957;81;20939;-76
2021/12/03 05:06:41;;;;;;;16.85;7.67;;;;;;;8.65;85.30;100153.09;1758087;81;21183;-76
2021/12/03 05:08:59;;;;;;;18.70;9.08;;;;;;;8.65;85.39;100153.92;1756531;81;21052;-76
2021/12/03 05:11:26;;;;;;;15.80;7.80;;;;;;;8.68;85.44;100156.81;1757973;81;20865;-77
2021/12/03 05:13:53;;;;;;;13.53;9.43;;;;;;;8.70;85.41;100159.70;1758029;80;21417;-76
2021/12/03 05:16:20;;;;;;;19.30;10.40;;;;;;;8.68;85.47;100151.11;1757904;80;21041;-77
2021/12/03 05:18:48;;;;;;;21.70;11.12;;;;;;;8.67;85.58;100144.22;1758176;81;21769;-77
2021/12/03 05:21:15;;;;;;;20.48;11.10;;;;;;;8.66;85.63;100153.45;1757835;81;20962;-77
2021/12/03 05:23:42;;;;;;;19.98;10.38;;;;;;;8.61;85.67;100139.34;1757965;81;20924;-77
2021/12/03 05:26:09;;;;;;;31.55;13.93;;;;;;;8.57;85.86;100154.83;1757968;81;20956;-77
2021/12/03 05:28:37;;;;;;;23.80;12.43;;;;;;;8.56;85.98;100161.00;1757944;80;20924;-76
2021/12/03 05:31:04;;;;;;;19.73;10.25;;;;;;;8.54;85.99;100156.33;1757928;80;21128;-76
2021/12/03 05:33:31;;;;;;;20.62;9.60;;;;;;;8.55;85.93;100155.86;1757904;81;20976;-77
2021/12/03 05:35:57;;;;;;;23.38;10.45;;;;;;;8.57;85.88;100157.91;1758118;81;20896;-77
2021/12/03 05:38:26;;;;;;;19.37;9.75;;;;;;;8.57;85.82;100156.61;1757968;81;20939;-80
2021/12/03 05:40:55;;;;;;;22.70;11.88;;;;;;;8.54;85.62;100156.77;1756878;81;20924;-77
2021/12/03 05:43:22;;;;;;;20.10;12.13;;;;;;;8.52;85.55;100152.97;1744863;82;21101;-77
2021/12/03 05:45:49;;;;;;;29.48;11.88;;;;;;;8.52;85.43;100148.21;1744737;81;20866;-76
2021/12/03 05:48:16;;;;;;;25.23;11.40;;;;;;;8.49;85.33;100151.82;1744843;82;20973;-75
2021/12/03 05:50:43;;;;;;;21.97;11.55;;;;;;;8.46;85.34;100155.45;1744900;81;20905;-76
2021/12/03 05:53:09;;;;;;;26.25;9.70;;;;;;;8.44;85.35;100153.88;1744547;81;20991;-74
2021/12/03 05:55:37;;;;;;;16.93;8.70;;;;;;;8.43;85.33;100156.95;1744652;81;21559;-75
2021/12/03 05:58:04;;;;;;;21.20;7.67;;;;;;;8.45;85.18;100162.94;1744504;81;21457;-78
2021/12/03 06:00:38;;;;;;;20.32;9.23;;;;;;;8.43;85.12;100160.88;1744759;81;20936;-85
2021/12/03 06:03:08;;;;;;;19.07;8.53;;;;;;;8.42;85.01;100157.88;1744652;81;20913;-77
2021/12/03 06:05:39;;;;;;;34.58;14.55;;;;;;;8.41;84.82;100154.89;1744731;81;20948;-79
2021/12/03 06:08:06;;;;;;;25.00;9.28;;;;;;;8.39;84.52;100160.64;1744775;81;21096;-80
2021/12/03 06:10:33;;;;;;;17.82;6.50;;;;;;;8.40;84.37;100157.12;1744946;81;20944;-80
2021/12/03 06:13:00;;;;;;;15.32;6.47;;;;;;;8.39;84.15;100145.44;1744641;81;20932;-81
2021/12/03 06:15:27;;;;;;;13.58;6.30;;;;;;;8.38;83.93;100158.11;1744805;81;21033;-82
2021/12/03 06:17:55;;;;;;;17.75;6.78;;;;;;;8.35;83.73;100156.99;1744610;81;21350;-80
2021/12/03 06:20:22;;;;;;;18.60;7.22;;;;;;;8.33;83.63;100145.31;1745203;80;21090;-80
2021/12/03 06:22:49;;;;;;;19.75;6.87;;;;;;;8.31;83.50;100145.87;1743478;81;21003;-79
2021/12/03 06:25:16;;;;;;;13.15;5.80;;;;;;;8.30;83.34;100141.12;1743127;82;21019;-80
2021/12/03 06:27:43;;;;;;;13.88;4.92;;;;;;;8.29;83.26;100147.73;1743186;81;20980;-79
2021/12/03 06:30:16;;;;;;;16.82;6.58;;;;;;;8.28;83.25;100149.98;1744654;81;21362;-79
2021/12/03 06:32:46;;;;;;;12.78;5.22;;;;;;;8.28;83.21;100146.89;1744700;81;21820;-79
2021/12/03 06:35:15;;;;;;;14.53;5.42;;;;;;;8.31;83.08;100145.87;1744836;81;21015;-79
2021/12/03 06:37:42;;;;;;;11.57;5.30;;;;;;;8.34;83.02;100148.77;1744547;81;20901;-79
2021/12/03 06:40:13;;;;;;;21.57;6.80;;;;;;;8.37;82.88;100144.69;1744967;81;20897;-80
2021/12/03 06:42:40;;;;;;;12.95;4.50;;;;;;;8.38;82.59;100141.99;1753381;81;20881;-80
2021/12/03 06:45:09;;;;;;;11.05;3.90;;;;;;;8.40;82.47;100147.97;1758736;80;21137;-79
2021/12/03 06:47:36;;;;;;;10.15;3.80;;;;;;;8.40;82.28;100154.95;1758051;81;21453;-79
2021/12/03 06:50:05;;;;;;;7.33;3.90;;;;;;;8.40;82.26;100147.11;1758211;81;21006;-80
2021/12/03 06:52:34;;;;;;;14.28;5.30;;;;;;;8.41;82.28;100141.83;1757964;81;20983;-79
2021/12/03 06:55:04;;;;;;;13.53;5.50;;;;;;;8.44;82.24;100140.80;1758556;80;20954;-78
2021/12/03 06:57:29;;;;;;;8.63;3.80;;;;;;;8.48;82.25;100151.45;1757875;80;21106;-78
2021/12/03 06:59:57;;;;;;;9.25;4.25;;;;;;;8.54;82.14;100143.27;1758173;81;20888;-79
2021/12/03 07:02:24;;;;;;;12.43;6.42;;;;;;;8.62;81.97;100140.18;1758220;81;20959;-81
2021/12/03 07:04:51;;;;;;;11.22;4.28;;;;;;;8.69;81.62;100158.48;1758179;81;20884;-79
2021/12/03 07:07:17;;;;;;;10.93;5.85;;;;;;;8.71;81.44;100140.94;1758082;80;20943;-81
2021/12/03 07:09:44;;;;;;;9.05;3.85;;;;;;;8.73;81.21;100141.69;1758292;81;21092;-82
2021/12/03 07:12:13;;;;;;;7.95;3.65;;;;;;;8.75;81.04;100137.20;1757862;81;20852;-80
2021/12/03 07:14:40;;;;;;;13.98;4.30;;;;;;;8.75;81.03;100135.06;1757820;81;20975;-75
2021/12/03 07:17:07;;;;;;;11.55;4.80;;;;;;;8.78;80.89;100141.41;1757834;80;20927;-74
2021/12/03 07:19:35;;;;;;;9.60;4.15;;;;;;;8.78;80.80;100129.20;1758060;80;20936;-78
2021/12/03 07:22:02;;;;;;;10.32;5.33;;;;;;;8.82;80.65;100145.52;1758023;81;21097;-76
2021/12/03 07:24:29;;;;;;;11.55;4.70;;;;;;;8.83;80.50;100139.38;1758284;80;21379;-75
2021/12/03 07:26:56;;;;;;;9.48;3.67;;;;;;;8.87;80.46;100131.70;1757911;80;20987;-73
2021/12/03 07:29:23;;;;;;;5.90;3.58;;;;;;;8.90;80.14;100136.76;1758123;80;20983;-74
2021/12/03 07:31:49;;;;;;;10.32;4.55;;;;;;;8.91;80.01;100137.98;1757840;80;21365;-75
2021/12/03 07:34:16;;;;;;;9.65;3.30;;;;;;;8.94;79.79;100144.80;1757928;81;21545;-74
2021/12/03 07:36:43;;;;;;;7.17;3.37;;;;;;;8.95;79.62;100138.61;1758044;80;20913;-74
2021/12/03 07:39:10;;;;;;;8.90;3.85;;;;;;;8.96;79.37;100147.30;1758111;81;20911;-74
2021/12/03 07:41:40;;;;;;;7.50;3.47;;;;;;;8.96;79.27;100142.06;1757655;80;20987;-74
2021/12/03 07:44:06;;;;;;;9.78;3.75;;;;;;;8.97;79.14;100161.59;1757968;80;20999;-76
2021/12/03 07:46:34;;;;;;;12.15;4.03;;;;;;;8.98;78.86;100148.91;1757823;80;21084;-76
2021/12/03 07:49:02;;;;;;;8.65;4.30;;;;;;;8.98;78.82;100144.12;1757851;80;20892;-74
2021/12/03 07:51:30;;;;;;;9.65;3.77;;;;;;;9.02;78.54;100153.47;1757831;80;21631;-76
2021/12/03 07:53:57;;;;;;;8.93;3.90;;;;;;;9.03;78.39;100154.69;1758040;81;20959;-75
2021/12/03 07:56:24;;;;;;;11.55;3.75;;;;;;;9.04;78.06;100146.37;1758015;80;21003;-75
2021/12/03 07:58:51;;;;;;;11.33;5.60;;;;;;;9.06;77.99;100145.81;1758075;81;21134;-76
2021/12/03 08:01:19;;;;;;;10.03;2.92;;;;;;;9.08;77.89;100154.41;1757800;80;21365;-74
2021/12/03 08:03:45;;;;;;;9.90;3.47;;;;;;;9.11;77.81;100152.89;1758253;81;20920;-75
2021/12/03 08:06:13;;;;;;;9.80;3.42;;;;;;;9.14;77.70;100155.34;1757923;81;21011;-75
2021/12/03 08:08:41;;;;;;;7.58;4.35;;;;;;;9.20;77.50;100152.33;1758106;81;20993;-75
2021/12/03 08:11:08;;;;;;;7.17;3.72;;;;;;;9.25;77.23;100145.50;1758187;80;21534;-75
2021/12/03 08:13:36;;;;;;;9.05;3.33;;;;;;;9.29;76.95;100156.15;1757932;80;20983;-76
2021/12/03 08:16:04;;;;;;;11.85;4.70;;;;;;;9.32;76.79;100142.90;1741300;81;20995;-75
2021/12/03 08:18:31;;;;;;;11.73;4.97;;;;;;;9.34;76.49;100140.55;1757923;81;20936;-76
2021/12/03 08:20:58;;;;;;;19.40;6.75;;;;;;;9.37;76.43;100141.30;1758052;81;20896;-76
2021/12/03 08:23:27;;;;;;;9.10;4.60;;;;;;;9.37;76.26;100143.44;1758458;81;21381;-77
2021/12/03 08:25:54;;;;;;;11.93;3.65;;;;;;;9.37;76.22;100141.30;1758005;80;20896;-75
2021/12/03 08:28:20;;;;;;;17.62;7.78;;;;;;;9.39;76.08;100147.28;1758191;81;20896;-76
2021/12/03 08:30:47;;;;;;;10.98;6.35;;;;;;;9.39;75.71;100142.88;1757968;81;20944;-74
2021/12/03 08:33:14;;;;;;;8.65;4.70;;;;;;;9.42;75.71;100141.84;1758681;81;21430;-76
2021/12/03 08:35:41;;;;;;;13.62;4.83;;;;;;;9.43;75.32;100120.81;1757715;81;21061;-73
2021/12/03 08:38:08;;;;;;;15.38;6.37;;;;;;;9.45;75.28;100139.02;1757975;80;21370;-74
2021/12/03 08:40:36;;;;;;;8.83;4.15;;;;;;;9.46;75.15;100132.86;1758036;81;20888;-74
2021/12/03 08:43:03;;;;;;;9.13;4.92;;;;;;;9.47;75.03;100124.92;1750665;80;21019;-73
2021/12/03 08:45:30;;;;;;;12.28;4.20;;;;;;;9.46;74.93;100128.46;1744623;81;20897;-75
2021/12/03 08:47:59;;;;;;;9.70;4.75;;;;;;;9.46;74.67;100116.69;1744950;81;21088;-74
2021/12/03 08:50:31;;;;;;;8.65;4.47;;;;;;;9.44;74.58;100118.55;1744525;81;20921;-73
2021/12/03 08:55:32;;;;;;;8.93;4.40;;;;;;;9.44;74.35;100121.17;1744813;81;20893;-74
2021/12/03 08:57:59;;;;;;;13.03;5.17;;;;;;;9.46;74.29;100116.69;1744972;80;20920;-74
2021/12/03 09:00:26;;;;;;;8.05;4.50;;;;;;;9.48;74.21;100113.50;1744733;82;21763;-74
2021/12/03 09:02:53;;;;;;;8.35;4.22;;;;;;;9.49;74.03;100119.13;1744834;81;20929;-75
2021/12/03 09:05:20;;;;;;;8.10;3.12;;;;;;;9.48;73.97;100112.19;1744591;82;21434;-75
2021/12/03 09:07:47;;;;;;;11.25;4.35;;;;;;;9.50;73.80;100113.41;1744918;81;20881;-75
2021/12/03 09:10:16;;;;;;;6.80;3.80;;;;;;;9.50;73.89;100109.02;1744652;81;20987;-73
2021/12/03 09:12:44;;;;;;;9.98;4.35;;;;;;;9.50;73.80;100107.70;1744603;81;21356;-75
2021/12/03 09:15:14;;;;;;;13.40;5.12;;;;;;;9.51;73.77;100105.92;1744760;81;20912;-76
2021/12/03 09:18:04;;;;;;;17.30;5.67;;;;;;;9.55;73.56;100099.55;1744707;81;20897;-75
2021/12/03 09:20:42;;;;;;;12.28;5.70;;;;;;;9.58;73.41;100115.05;1744044;80;20897;-74
2021/12/03 09:23:03;;;;;;;9.98;5.05;;;;;;;9.63;73.31;100089.44;1744118;81;20889;-75
2021/12/03 09:25:37;;;;;;;11.68;4.20;;;;;;;9.70;73.02;100104.28;1744505;80;21850;-74
2021/12/03 09:28:05;;;;;;;;;;;;;;;9.74;72.79;100093.52;1747443;81;20909;-75
2021/12/03 09:30:36;;;;;;;7.58;3.70;;;;;;;9.77;72.32;100091.63;1744858;81;20101;-75
2021/12/03 09:33:00;;;;;;;14.40;5.85;;;;;;;9.79;72.28;100081.90;1744783;81;20932;-74
2021/12/03 09:35:29;;;;;;;15.80;5.50;;;;;;;9.80;72.36;100079.16;1744586;81;20983;-74
2021/12/03 09:37:56;;;;;;;20.05;7.10;;;;;;;9.81;72.29;100070.86;1745033;81;21066;-75
2021/12/03 09:40:25;;;;;;;17.87;8.73;;;;;;;9.82;72.29;100078.59;1744620;81;21344;-75
2021/12/03 09:42:51;;;;;;;14.87;5.95;;;;;;;9.84;72.33;100079.33;1744717;80;20881;-76
2021/12/03 09:45:18;;;;;;;10.63;5.75;;;;;;;9.88;72.19;100077.36;1744616;81;20901;-75
2021/12/03 09:47:46;;;;;;;9.85;4.45;;;;;;;9.90;72.22;100079.42;1745219;81;20945;-75
2021/12/03 09:50:14;;;;;;;8.65;4.90;;;;;;;9.92;72.26;100073.61;1744545;81;21542;-75
2021/12/03 09:53:05;;;;;;;8.83;4.50;;;;;;;9.96;72.25;100077.70;1744571;82;20894;-74
2021/12/03 09:55:16;;;;;;;10.75;4.90;;;;;;;10.03;72.13;100061.11;1743452;81;20976;-74
2021/12/03 09:58:02;;;;;;;14.80;6.65;;;;;;;10.09;71.91;100059.37;1744504;81;20971;-75
2021/12/03 10:06:42;;;;;;;10.00;4.78;;;;;;;10.34;71.16;100035.85;1744509;82;20920;-76
2021/12/03 10:13:59;;;;;;;19.80;5.85;;;;;;;10.46;70.72;100028.92;1744514;81;20944;-76
2021/12/03 10:18:53;;;;;;;9.40;5.28;;;;;;;10.58;70.20;100036.39;1744677;81;20925;-75
2021/12/03 10:28:31;;;;;;;18.50;5.42;;;;;;;10.70;69.93;100034.72;1744577;81;20885;-73
2021/12/03 10:30:32;;;;;;;10.63;4.22;;;;;;;10.75;69.92;100022.12;1718717;82;21186;-75
2021/12/03 10:41:19;;;;;;;15.30;4.70;;;;;;;11.07;69.59;100011.97;1744512;81;21000;-76
2021/12/03 10:44:09;;;;;;;10.90;4.22;;;;;;;11.09;69.59;100000.87;1744054;81;21097;-73
2021/12/03 10:52:14;;;;;;;13.43;5.12;;;;;;;11.20;69.94;99985.20;1744595;81;21023;-74
2021/12/03 11:00:34;;;;;;;12.23;4.67;;;;;;;11.31;69.71;99966.02;1744471;80;20929;-74
2021/12/03 11:03:19;;;;;;;7.58;4.40;;;;;;;11.35;69.75;99970.59;1743159;82;21319;-75
2021/12/03 11:08:30;;;;;;;9.85;5.25;;;;;;;11.47;70.04;99967.52;1744593;81;20878;-74
2021/12/03 11:33:49;;;;;;;7.85;5.17;;;;;;;11.89;69.62;99962.17;1744756;81;20905;-77
2021/12/03 11:52:35;;;;;;;13.30;5.85;;;;;;;11.71;71.43;99954.34;1744557;81;20905;-84
2021/12/03 11:58:31;;;;;;;13.53;6.75;;;;;;;11.74;72.10;99940.52;1870447;76;22660;-75
2021/12/03 12:33:35;;;;;;;9.25;4.37;;;;;;;11.61;72.27;99948.48;1760133;81;21677;-73
2021/12/03 13:14:36;;;;;;;14.68;6.15;;;;;;;11.05;75.30;99920.72;1759265;81;21066;-74
2021/12/03 13:17:19;;;;;;;13.08;5.53;;;;;;;11.02;75.50;99924.03;1755120;81;21094;-74
2021/12/03 13:35:38;;;;;;;16.93;6.08;;;;;;;10.85;76.82;99905.57;1760590;80;20951;-73
2021/12/03 13:36:58;;;;;;;16.62;7.30;;;;;;;10.81;76.92;99904.98;1698458;81;20883;-74
2021/12/03 14:00:55;;;;;;;18.05;8.70;;;;;;;10.61;77.89;99909.03;1776581;80;20981;-76
2021/12/03 14:08:58;;;;;;;29.40;11.22;;;;;;;10.50;78.52;99908.97;1796641;78;21257;-76
2021/12/03 14:24:03;;;;;;;35.20;12.18;;;;;;;10.39;78.97;99908.41;1776912;80;21490;-77
2021/12/03 14:31:54;;;;;;;23.45;8.35;;;;;;;10.30;79.48;99905.97;1776366;80;20964;-75
2021/12/03 14:38:13;;;;;;;17.55;8.00;;;;;;;10.24;80.10;99915.53;1765212;81;21526;-76
2021/12/03 14:51:16;;;;;;;19.48;7.50;;;;;;;10.10;81.08;99903.88;1764954;80;21001;-75
2021/12/03 14:56:16;;;;;;;25.32;10.60;;;;;;;10.08;81.38;99891.35;1796449;80;21380;-74
2021/12/03 14:58:51;;;;;;;19.23;7.97;;;;;;;10.06;81.46;99901.09;1780232;79;20932;-77
2021/12/03 15:01:27;;;;;;;15.20;7.87;;;;;;;10.05;81.55;99898.09;1779370;80;21222;-75
2021/12/03 15:06:35;;;;;;;18.48;8.25;;;;;;;10.01;81.89;99901.90;1759307;81;21515;-77
2021/12/03 15:11:55;;;;;;;15.88;8.33;;;;;;;9.97;82.08;99902.57;1759178;81;21090;-74
2021/12/03 15:32:44;;;;;;;14.58;8.25;;;;;;;9.88;82.30;99901.42;1759176;81;21340;-77
2021/12/03 15:37:49;;;;;;;18.20;9.80;;;;;;;9.85;82.42;99902.09;1790394;80;21504;-77
2021/12/03 15:54:18;;;;;;;21.02;9.45;;;;;;;9.80;83.20;99887.17;1779311;80;21135;-75
2021/12/03 15:56:39;;;;;;;17.12;10.23;;;;;;;9.81;83.12;99881.84;1774765;80;20884;-76
2021/12/03 16:04:26;;;;;;;20.35;8.80;;;;;;;9.77;83.15;99868.59;1779297;80;20917;-78
2021/12/03 16:12:02;;;;;;;9.28;5.65;;;;;;;9.71;83.46;99873.76;1759222;81;21364;-76
2021/12/03 16:22:34;;;;;;;17.67;8.40;;;;;;;9.70;83.84;99883.88;1759718;80;20879;-75
2021/12/03 16:43:45;;;;;;;17.17;8.13;;;;;;;9.60;84.04;99888.53;1759371;81;21492;-76